Terminal Aerodrome Forecast
Issued by NWS Mobile, AL

Home | Current Version | Previous Version | Text Only | Print | Product List | Glossary On
Versions: 1 2 3 4 5 6 7 8 9 10 11 12 13 14 15 16 17 18 19 20 21 22 23 24 25 26 27 28 29 30 31 32 33 34 35 36 37 38 39 40 41 42 43 44 45 46
350
FTUS44 KMOB 301134
TAFMOB
TAF
KMOB 301134Z 3012/3112 33004KT P6SM VCSH SCT045 BKN170
      TEMPO 3012/3014 3SM -RA BKN010
     FM301800 17008KT P6SM VCTS BKN050CB
      TEMPO 3018/3021 4SM -TSRA BKN030CB
     FM310000 18007KT P6SM BKN250
     FM310600 11003KT P6SM VCTS BKN025CB PROB30 3109/3112 P6SM -TSRA
      BKN010CB=

USA.gov is the U.S. government's official web portal to all federal, state and local government web resources and services.